sensor_id;sensor_type;location;lat;lon;timestamp;temperature;humidity
33863;DHT22;20158;51.436;-2.742;2023-09-08T00:02:03;24.30;78.20
33863;DHT22;20158;51.436;-2.742;2023-09-08T00:04:29;24.20;78.00
33863;DHT22;20158;51.436;-2.742;2023-09-08T00:06:55;24.20;78.10
33863;DHT22;20158;51.436;-2.742;2023-09-08T00:09:21;24.10;78.00
33863;DHT22;20158;51.436;-2.742;2023-09-08T00:11:47;24.10;78.10
33863;DHT22;20158;51.436;-2.742;2023-09-08T00:14:13;24.10;78.10
33863;DHT22;20158;51.436;-2.742;2023-09-08T00:16:39;24.10;78.20
33863;DHT22;20158;51.436;-2.742;2023-09-08T00:19:09;24.10;78.30
33863;DHT22;20158;51.436;-2.742;2023-09-08T00:21:36;24.00;78.20
33863;DHT22;20158;51.436;-2.742;2023-09-08T00:24:06;24.00;78.20
33863;DHT22;20158;51.436;-2.742;2023-09-08T00:26:32;24.00;78.30
33863;DHT22;20158;51.436;-2.742;2023-09-08T00:28:58;23.90;78.20
33863;DHT22;20158;51.436;-2.742;2023-09-08T00:31:24;23.90;78.20
33863;DHT22;20158;51.436;-2.742;2023-09-08T00:33:50;23.90;78.30
33863;DHT22;20158;51.436;-2.742;2023-09-08T00:36:16;23.80;78.10
33863;DHT22;20158;51.436;-2.742;2023-09-08T00:38:44;23.80;78.20
33863;DHT22;20158;51.436;-2.742;2023-09-08T00:41:11;23.80;78.20
33863;DHT22;20158;51.436;-2.742;2023-09-08T00:43:37;23.70;78.10
33863;DHT22;20158;51.436;-2.742;2023-09-08T00:46:03;23.70;78.20
33863;DHT22;20158;51.436;-2.742;2023-09-08T00:48:30;23.70;78.20
33863;DHT22;20158;51.436;-2.742;2023-09-08T00:50:57;23.70;78.30
33863;DHT22;20158;51.436;-2.742;2023-09-08T00:53:23;23.60;78.20
33863;DHT22;20158;51.436;-2.742;2023-09-08T00:55:50;23.60;78.20
33863;DHT22;20158;51.436;-2.742;2023-09-08T00:58:17;23.60;78.30
33863;DHT22;20158;51.436;-2.742;2023-09-08T01:00:43;23.60;78.30
33863;DHT22;20158;51.436;-2.742;2023-09-08T01:03:13;23.50;78.20
33863;DHT22;20158;51.436;-2.742;2023-09-08T01:05:39;23.50;78.30
33863;DHT22;20158;51.436;-2.742;2023-09-08T01:08:07;23.50;78.30
33863;DHT22;20158;51.436;-2.742;2023-09-08T01:10:34;23.40;78.20
33863;DHT22;20158;51.436;-2.742;2023-09-08T01:13:01;23.40;78.20
33863;DHT22;20158;51.436;-2.742;2023-09-08T01:15:28;23.40;78.30
33863;DHT22;20158;51.436;-2.742;2023-09-08T01:17:54;23.40;78.30
33863;DHT22;20158;51.436;-2.742;2023-09-08T01:20:23;23.30;78.20
33863;DHT22;20158;51.436;-2.742;2023-09-08T01:25:32;23.30;78.30
33863;DHT22;20158;51.436;-2.742;2023-09-08T01:28:01;23.30;78.30
33863;DHT22;20158;51.436;-2.742;2023-09-08T01:30:29;23.20;78.20
33863;DHT22;20158;51.436;-2.742;2023-09-08T01:32:58;23.20;78.20
33863;DHT22;20158;51.436;-2.742;2023-09-08T01:35:25;23.10;78.10
33863;DHT22;20158;51.436;-2.742;2023-09-08T01:37:51;23.10;78.20
33863;DHT22;20158;51.436;-2.742;2023-09-08T01:40:18;23.10;78.30
33863;DHT22;20158;51.436;-2.742;2023-09-08T01:42:45;23.10;78.30
33863;DHT22;20158;51.436;-2.742;2023-09-08T01:45:11;23.00;78.20
33863;DHT22;20158;51.436;-2.742;2023-09-08T01:47:37;23.00;78.30
33863;DHT22;20158;51.436;-2.742;2023-09-08T01:50:03;23.00;78.40
33863;DHT22;20158;51.436;-2.742;2023-09-08T01:52:29;23.00;78.40
33863;DHT22;20158;51.436;-2.742;2023-09-08T01:54:55;22.90;78.30
33863;DHT22;20158;51.436;-2.742;2023-09-08T01:57:22;22.90;78.30
33863;DHT22;20158;51.436;-2.742;2023-09-08T01:59:51;22.90;78.40
33863;DHT22;20158;51.436;-2.742;2023-09-08T02:02:18;22.80;78.20
33863;DHT22;20158;51.436;-2.742;2023-09-08T02:04:44;22.80;78.30
33863;DHT22;20158;51.436;-2.742;2023-09-08T02:07:11;22.80;78.30
33863;DHT22;20158;51.436;-2.742;2023-09-08T02:09:37;22.80;78.40
33863;DHT22;20158;51.436;-2.742;2023-09-08T02:12:04;22.80;78.50
33863;DHT22;20158;51.436;-2.742;2023-09-08T02:14:30;22.70;78.30
33863;DHT22;20158;51.436;-2.742;2023-09-08T02:16:59;22.70;78.30
33863;DHT22;20158;51.436;-2.742;2023-09-08T02:19:26;22.70;78.40
33863;DHT22;20158;51.436;-2.742;2023-09-08T02:21:53;22.60;78.30
33863;DHT22;20158;51.436;-2.742;2023-09-08T02:24:19;22.70;78.50
33863;DHT22;20158;51.436;-2.742;2023-09-08T02:26:46;22.60;78.30
33863;DHT22;20158;51.436;-2.742;2023-09-08T02:29:12;22.60;78.30
33863;DHT22;20158;51.436;-2.742;2023-09-08T02:31:39;22.60;78.40
33863;DHT22;20158;51.436;-2.742;2023-09-08T02:34:07;22.60;78.40
33863;DHT22;20158;51.436;-2.742;2023-09-08T02:36:33;22.50;78.30
33863;DHT22;20158;51.436;-2.742;2023-09-08T02:39:00;22.50;78.30
33863;DHT22;20158;51.436;-2.742;2023-09-08T02:41:26;22.50;78.30
33863;DHT22;20158;51.436;-2.742;2023-09-08T02:43:52;22.50;78.30
33863;DHT22;20158;51.436;-2.742;2023-09-08T02:46:18;22.40;78.70
33863;DHT22;20158;51.436;-2.742;2023-09-08T02:48:45;22.40;78.20
33863;DHT22;20158;51.436;-2.742;2023-09-08T02:51:11;22.40;78.20
33863;DHT22;20158;51.436;-2.742;2023-09-08T02:53:38;22.40;78.20
33863;DHT22;20158;51.436;-2.742;2023-09-08T02:56:04;22.40;78.30
33863;DHT22;20158;51.436;-2.742;2023-09-08T02:58:31;22.40;78.30
33863;DHT22;20158;51.436;-2.742;2023-09-08T03:01:14;22.30;78.20
33863;DHT22;20158;51.436;-2.742;2023-09-08T03:03:43;22.30;78.30
33863;DHT22;20158;51.436;-2.742;2023-09-08T03:06:11;22.30;78.30
33863;DHT22;20158;51.436;-2.742;2023-09-08T03:08:39;22.30;78.30
33863;DHT22;20158;51.436;-2.742;2023-09-08T03:11:05;22.20;78.20
33863;DHT22;20158;51.436;-2.742;2023-09-08T03:13:32;22.20;78.20
33863;DHT22;20158;51.436;-2.742;2023-09-08T03:16:04;22.20;78.30
33863;DHT22;20158;51.436;-2.742;2023-09-08T03:18:32;22.20;78.30
33863;DHT22;20158;51.436;-2.742;2023-09-08T03:20:59;22.20;78.90
33863;DHT22;20158;51.436;-2.742;2023-09-08T03:23:27;22.20;78.40
33863;DHT22;20158;51.436;-2.742;2023-09-08T03:25:54;22.20;78.40
33863;DHT22;20158;51.436;-2.742;2023-09-08T03:28:20;22.20;78.40
33863;DHT22;20158;51.436;-2.742;2023-09-08T03:30:46;22.10;78.30
33863;DHT22;20158;51.436;-2.742;2023-09-08T03:33:12;22.10;78.40
33863;DHT22;20158;51.436;-2.742;2023-09-08T03:35:38;22.10;78.40
33863;DHT22;20158;51.436;-2.742;2023-09-08T03:38:07;22.10;78.40
33863;DHT22;20158;51.436;-2.742;2023-09-08T03:40:33;22.10;78.50
33863;DHT22;20158;51.436;-2.742;2023-09-08T03:42:59;22.10;78.50
33863;DHT22;20158;51.436;-2.742;2023-09-08T03:45:25;22.10;78.60
33863;DHT22;20158;51.436;-2.742;2023-09-08T03:47:51;22.00;78.40
33863;DHT22;20158;51.436;-2.742;2023-09-08T03:50:17;22.00;78.50
33863;DHT22;20158;51.436;-2.742;2023-09-08T03:52:44;22.00;78.50
33863;DHT22;20158;51.436;-2.742;2023-09-08T03:55:11;22.00;78.50
33863;DHT22;20158;51.436;-2.742;2023-09-08T03:57:38;22.00;78.40
33863;DHT22;20158;51.436;-2.742;2023-09-08T04:00:05;22.00;78.40
33863;DHT22;20158;51.436;-2.742;2023-09-08T04:02:40;22.00;78.40
33863;DHT22;20158;51.436;-2.742;2023-09-08T04:05:06;21.90;78.20
33863;DHT22;20158;51.436;-2.742;2023-09-08T04:07:32;21.90;78.20
33863;DHT22;20158;51.436;-2.742;2023-09-08T04:09:58;21.90;78.20
33863;DHT22;20158;51.436;-2.742;2023-09-08T04:12:24;21.90;78.70
33863;DHT22;20158;51.436;-2.742;2023-09-08T04:14:52;21.90;78.20
33863;DHT22;20158;51.436;-2.742;2023-09-08T04:17:20;21.90;78.20
33863;DHT22;20158;51.436;-2.742;2023-09-08T04:19:46;21.90;78.20
33863;DHT22;20158;51.436;-2.742;2023-09-08T04:22:12;21.90;78.20
33863;DHT22;20158;51.436;-2.742;2023-09-08T04:24:38;21.90;78.20
33863;DHT22;20158;51.436;-2.742;2023-09-08T04:27:05;21.90;78.30
33863;DHT22;20158;51.436;-2.742;2023-09-08T04:29:32;21.80;78.10
33863;DHT22;20158;51.436;-2.742;2023-09-08T04:31:58;21.80;78.10
33863;DHT22;20158;51.436;-2.742;2023-09-08T04:34:25;21.80;78.10
33863;DHT22;20158;51.436;-2.742;2023-09-08T04:36:51;21.80;78.10
33863;DHT22;20158;51.436;-2.742;2023-09-08T04:39:17;21.80;78.10
33863;DHT22;20158;51.436;-2.742;2023-09-08T04:41:44;21.80;78.20
33863;DHT22;20158;51.436;-2.742;2023-09-08T04:44:10;21.80;78.20
33863;DHT22;20158;51.436;-2.742;2023-09-08T04:46:37;21.80;78.20
33863;DHT22;20158;51.436;-2.742;2023-09-08T04:49:08;21.70;78.10
33863;DHT22;20158;51.436;-2.742;2023-09-08T04:51:34;21.70;78.10
33863;DHT22;20158;51.436;-2.742;2023-09-08T04:54:00;21.70;78.10
33863;DHT22;20158;51.436;-2.742;2023-09-08T04:56:26;21.70;78.10
33863;DHT22;20158;51.436;-2.742;2023-09-08T04:58:52;21.70;78.20
33863;DHT22;20158;51.436;-2.742;2023-09-08T05:01:21;21.70;78.20
33863;DHT22;20158;51.436;-2.742;2023-09-08T05:03:47;21.70;78.20
33863;DHT22;20158;51.436;-2.742;2023-09-08T05:06:13;21.60;78.60
33863;DHT22;20158;51.436;-2.742;2023-09-08T05:08:39;21.60;78.00
33863;DHT22;20158;51.436;-2.742;2023-09-08T05:11:06;21.60;78.10
33863;DHT22;20158;51.436;-2.742;2023-09-08T05:13:32;21.60;78.10
33863;DHT22;20158;51.436;-2.742;2023-09-08T05:16:00;21.60;78.10
33863;DHT22;20158;51.436;-2.742;2023-09-08T05:18:41;21.60;78.10
33863;DHT22;20158;51.436;-2.742;2023-09-08T05:21:07;21.60;78.10
33863;DHT22;20158;51.436;-2.742;2023-09-08T05:23:34;21.60;78.20
33863;DHT22;20158;51.436;-2.742;2023-09-08T05:26:00;21.50;78.00
33863;DHT22;20158;51.436;-2.742;2023-09-08T05:28:27;21.50;78.00
33863;DHT22;20158;51.436;-2.742;2023-09-08T05:30:54;21.50;78.10
33863;DHT22;20158;51.436;-2.742;2023-09-08T05:33:20;21.50;78.20
33863;DHT22;20158;51.436;-2.742;2023-09-08T05:35:47;21.60;78.30
33863;DHT22;20158;51.436;-2.742;2023-09-08T05:38:15;21.60;78.30
33863;DHT22;20158;51.436;-2.742;2023-09-08T05:40:41;21.50;78.20
33863;DHT22;20158;51.436;-2.742;2023-09-08T05:43:08;21.50;78.20
33863;DHT22;20158;51.436;-2.742;2023-09-08T05:45:34;21.60;78.40
33863;DHT22;20158;51.436;-2.742;2023-09-08T05:48:01;21.60;78.40
33863;DHT22;20158;51.436;-2.742;2023-09-08T05:50:28;21.50;78.30
33863;DHT22;20158;51.436;-2.742;2023-09-08T05:52:54;21.50;78.30
33863;DHT22;20158;51.436;-2.742;2023-09-08T05:55:21;21.50;78.30
33863;DHT22;20158;51.436;-2.742;2023-09-08T05:57:48;21.50;78.30
33863;DHT22;20158;51.436;-2.742;2023-09-08T06:00:15;21.50;78.30
33863;DHT22;20158;51.436;-2.742;2023-09-08T06:02:45;21.50;78.30
33863;DHT22;20158;51.436;-2.742;2023-09-08T06:05:14;21.60;78.50
33863;DHT22;20158;51.436;-2.742;2023-09-08T06:07:41;21.60;78.50
33863;DHT22;20158;51.436;-2.742;2023-09-08T06:10:09;21.60;78.50
33863;DHT22;20158;51.436;-2.742;2023-09-08T06:12:36;21.60;78.50
33863;DHT22;20158;51.436;-2.742;2023-09-08T06:15:03;21.60;78.40
33863;DHT22;20158;51.436;-2.742;2023-09-08T06:17:30;21.70;78.60
33863;DHT22;20158;51.436;-2.742;2023-09-08T06:19:56;21.70;78.60
33863;DHT22;20158;51.436;-2.742;2023-09-08T06:22:23;21.70;78.60
33863;DHT22;20158;51.436;-2.742;2023-09-08T06:24:50;21.70;78.50
33863;DHT22;20158;51.436;-2.742;2023-09-08T06:27:16;21.70;79.10
33863;DHT22;20158;51.436;-2.742;2023-09-08T06:29:44;21.80;78.80
33863;DHT22;20158;51.436;-2.742;2023-09-08T06:32:12;21.90;78.90
33863;DHT22;20158;51.436;-2.742;2023-09-08T06:34:41;21.90;78.70
33863;DHT22;20158;51.436;-2.742;2023-09-08T06:37:10;22.00;78.80
33863;DHT22;20158;51.436;-2.742;2023-09-08T06:39:37;22.00;78.60
33863;DHT22;20158;51.436;-2.742;2023-09-08T06:42:04;22.00;78.60
33863;DHT22;20158;51.436;-2.742;2023-09-08T06:44:30;22.10;78.60
33863;DHT22;20158;51.436;-2.742;2023-09-08T06:46:58;22.10;78.60
33863;DHT22;20158;51.436;-2.742;2023-09-08T06:49:26;22.20;78.60
33863;DHT22;20158;51.436;-2.742;2023-09-08T06:51:53;22.20;79.20
33863;DHT22;20158;51.436;-2.742;2023-09-08T06:54:20;22.20;78.50
33863;DHT22;20158;51.436;-2.742;2023-09-08T06:56:46;22.20;78.50
33863;DHT22;20158;51.436;-2.742;2023-09-08T06:59:13;22.20;78.40
33863;DHT22;20158;51.436;-2.742;2023-09-08T07:01:42;22.30;78.60
33863;DHT22;20158;51.436;-2.742;2023-09-08T07:04:09;22.40;78.70
33863;DHT22;20158;51.436;-2.742;2023-09-08T07:06:36;22.40;78.60
33863;DHT22;20158;51.436;-2.742;2023-09-08T07:09:04;22.40;78.50
33863;DHT22;20158;51.436;-2.742;2023-09-08T07:11:32;22.50;79.20
33863;DHT22;20158;51.436;-2.742;2023-09-08T07:13:58;22.60;78.70
33863;DHT22;20158;51.436;-2.742;2023-09-08T07:16:24;22.60;78.60
33863;DHT22;20158;51.436;-2.742;2023-09-08T07:18:51;22.70;78.90
33863;DHT22;20158;51.436;-2.742;2023-09-08T07:21:17;22.80;79.00
33863;DHT22;20158;51.436;-2.742;2023-09-08T07:23:45;22.80;79.00
33863;DHT22;20158;51.436;-2.742;2023-09-08T07:26:13;22.90;79.10
33863;DHT22;20158;51.436;-2.742;2023-09-08T07:28:40;23.00;79.20
33863;DHT22;20158;51.436;-2.742;2023-09-08T07:31:11;23.00;79.20
33863;DHT22;20158;51.436;-2.742;2023-09-08T07:33:41;23.00;79.20
33863;DHT22;20158;51.436;-2.742;2023-09-08T07:36:08;23.10;79.40
33863;DHT22;20158;51.436;-2.742;2023-09-08T07:38:38;23.20;79.60
33863;DHT22;20158;51.436;-2.742;2023-09-08T07:41:04;23.20;79.50
33863;DHT22;20158;51.436;-2.742;2023-09-08T07:43:31;23.30;79.70
33863;DHT22;20158;51.436;-2.742;2023-09-08T07:45:57;23.30;79.60
33863;DHT22;20158;51.436;-2.742;2023-09-08T07:48:23;23.40;79.70
33863;DHT22;20158;51.436;-2.742;2023-09-08T07:50:52;23.50;79.80
33863;DHT22;20158;51.436;-2.742;2023-09-08T07:53:19;23.50;79.60
33863;DHT22;20158;51.436;-2.742;2023-09-08T07:55:48;23.60;79.60
33863;DHT22;20158;51.436;-2.742;2023-09-08T07:58:14;23.70;79.60
33863;DHT22;20158;51.436;-2.742;2023-09-08T08:00:41;23.80;79.60
33863;DHT22;20158;51.436;-2.742;2023-09-08T08:03:07;23.80;79.50
33863;DHT22;20158;51.436;-2.742;2023-09-08T08:05:35;23.90;79.50
33863;DHT22;20158;51.436;-2.742;2023-09-08T08:08:02;24.00;79.40
33863;DHT22;20158;51.436;-2.742;2023-09-08T08:10:28;24.10;79.40
33863;DHT22;20158;51.436;-2.742;2023-09-08T08:12:55;24.20;79.30
33863;DHT22;20158;51.436;-2.742;2023-09-08T08:15:22;24.20;79.10
33863;DHT22;20158;51.436;-2.742;2023-09-08T08:17:49;24.30;79.00
33863;DHT22;20158;51.436;-2.742;2023-09-08T08:20:18;24.50;79.20
33863;DHT22;20158;51.436;-2.742;2023-09-08T08:22:46;24.50;78.90
33863;DHT22;20158;51.436;-2.742;2023-09-08T08:25:12;24.60;79.40
33863;DHT22;20158;51.436;-2.742;2023-09-08T08:27:42;24.60;78.60
33863;DHT22;20158;51.436;-2.742;2023-09-08T08:30:09;24.70;78.50
33863;DHT22;20158;51.436;-2.742;2023-09-08T08:32:40;24.90;78.70
33863;DHT22;20158;51.436;-2.742;2023-09-08T08:35:06;25.00;78.60
33863;DHT22;20158;51.436;-2.742;2023-09-08T08:37:33;25.00;78.40
33863;DHT22;20158;51.436;-2.742;2023-09-08T08:39:59;25.10;78.20
33863;DHT22;20158;51.436;-2.742;2023-09-08T08:42:31;25.10;78.00
33863;DHT22;20158;51.436;-2.742;2023-09-08T08:44:59;25.20;77.80
33863;DHT22;20158;51.436;-2.742;2023-09-08T08:47:27;25.30;77.70
33863;DHT22;20158;51.436;-2.742;2023-09-08T08:49:58;25.30;77.50
33863;DHT22;20158;51.436;-2.742;2023-09-08T08:52:28;25.40;77.30
33863;DHT22;20158;51.436;-2.742;2023-09-08T08:54:55;25.50;77.10
33863;DHT22;20158;51.436;-2.742;2023-09-08T08:57:22;25.60;76.90
33863;DHT22;20158;51.436;-2.742;2023-09-08T08:59:49;25.70;76.70
33863;DHT22;20158;51.436;-2.742;2023-09-08T09:02:18;25.70;76.40
33863;DHT22;20158;51.436;-2.742;2023-09-08T09:04:46;25.80;76.10
33863;DHT22;20158;51.436;-2.742;2023-09-08T09:07:13;25.80;75.80
33863;DHT22;20158;51.436;-2.742;2023-09-08T09:09:39;25.90;75.60
33863;DHT22;20158;51.436;-2.742;2023-09-08T09:12:06;26.00;75.40
33863;DHT22;20158;51.436;-2.742;2023-09-08T09:14:33;26.00;75.10
33863;DHT22;20158;51.436;-2.742;2023-09-08T09:17:03;26.10;74.80
33863;DHT22;20158;51.436;-2.742;2023-09-08T09:19:34;26.20;74.50
33863;DHT22;20158;51.436;-2.742;2023-09-08T09:22:01;26.20;74.20
33863;DHT22;20158;51.436;-2.742;2023-09-08T09:24:33;26.30;74.00
33863;DHT22;20158;51.436;-2.742;2023-09-08T09:27:03;26.40;73.60
33863;DHT22;20158;51.436;-2.742;2023-09-08T09:29:32;26.50;73.30
33863;DHT22;20158;51.436;-2.742;2023-09-08T09:32:04;26.60;73.00
33863;DHT22;20158;51.436;-2.742;2023-09-08T09:34:31;26.70;72.50
33863;DHT22;20158;51.436;-2.742;2023-09-08T09:37:00;26.80;72.30
33863;DHT22;20158;51.436;-2.742;2023-09-08T09:39:27;26.90;72.10
33863;DHT22;20158;51.436;-2.742;2023-09-08T09:41:55;26.90;71.70
33863;DHT22;20158;51.436;-2.742;2023-09-08T09:44:24;27.10;71.50
33863;DHT22;20158;51.436;-2.742;2023-09-08T09:46:54;27.20;71.20
33863;DHT22;20158;51.436;-2.742;2023-09-08T09:49:21;27.40;71.10
33863;DHT22;20158;51.436;-2.742;2023-09-08T09:51:49;27.50;70.50
33863;DHT22;20158;51.436;-2.742;2023-09-08T09:54:16;27.60;70.10
33863;DHT22;20158;51.436;-2.742;2023-09-08T09:56:43;27.80;69.80
33863;DHT22;20158;51.436;-2.742;2023-09-08T09:59:12;27.90;69.50
33863;DHT22;20158;51.436;-2.742;2023-09-08T10:01:39;28.00;69.20
33863;DHT22;20158;51.436;-2.742;2023-09-08T10:04:07;28.10;68.70
33863;DHT22;20158;51.436;-2.742;2023-09-08T10:06:36;28.20;68.30
33863;DHT22;20158;51.436;-2.742;2023-09-08T10:09:04;28.40;68.00
33863;DHT22;20158;51.436;-2.742;2023-09-08T10:11:50;28.50;67.60
33863;DHT22;20158;51.436;-2.742;2023-09-08T10:14:17;28.60;67.20
33863;DHT22;20158;51.436;-2.742;2023-09-08T10:16:45;28.70;67.10
33863;DHT22;20158;51.436;-2.742;2023-09-08T10:19:17;28.70;66.90
33863;DHT22;20158;51.436;-2.742;2023-09-08T10:21:46;28.80;66.60
33863;DHT22;20158;51.436;-2.742;2023-09-08T10:24:20;28.90;66.40
33863;DHT22;20158;51.436;-2.742;2023-09-08T10:27:09;28.90;66.30
33863;DHT22;20158;51.436;-2.742;2023-09-08T10:29:37;29.00;66.20
33863;DHT22;20158;51.436;-2.742;2023-09-08T10:32:05;29.00;66.10
33863;DHT22;20158;51.436;-2.742;2023-09-08T10:34:33;29.10;66.00
33863;DHT22;20158;51.436;-2.742;2023-09-08T10:37:01;29.20;65.90
33863;DHT22;20158;51.436;-2.742;2023-09-08T10:39:31;29.20;65.70
33863;DHT22;20158;51.436;-2.742;2023-09-08T10:42:22;29.30;65.60
33863;DHT22;20158;51.436;-2.742;2023-09-08T10:45:02;29.20;65.00
33863;DHT22;20158;51.436;-2.742;2023-09-08T10:47:41;29.30;64.90
33863;DHT22;20158;51.436;-2.742;2023-09-08T10:50:07;29.40;64.90
33863;DHT22;20158;51.436;-2.742;2023-09-08T10:52:42;29.40;64.70
33863;DHT22;20158;51.436;-2.742;2023-09-08T10:55:08;29.40;64.60
33863;DHT22;20158;51.436;-2.742;2023-09-08T10:57:35;29.40;64.30
33863;DHT22;20158;51.436;-2.742;2023-09-08T11:00:04;29.50;64.10
33863;DHT22;20158;51.436;-2.742;2023-09-08T11:02:42;29.50;63.80
33863;DHT22;20158;51.436;-2.742;2023-09-08T11:05:14;29.60;63.70
33863;DHT22;20158;51.436;-2.742;2023-09-08T11:07:45;29.70;64.10
33863;DHT22;20158;51.436;-2.742;2023-09-08T11:10:12;29.80;64.10
33863;DHT22;20158;51.436;-2.742;2023-09-08T11:12:39;29.80;63.50
33863;DHT22;20158;51.436;-2.742;2023-09-08T11:15:06;29.90;63.30
33863;DHT22;20158;51.436;-2.742;2023-09-08T11:17:36;29.90;63.10
33863;DHT22;20158;51.436;-2.742;2023-09-08T11:20:06;30.00;63.50
33863;DHT22;20158;51.436;-2.742;2023-09-08T11:22:38;30.10;62.70
33863;DHT22;20158;51.436;-2.742;2023-09-08T11:25:08;30.10;62.60
33863;DHT22;20158;51.436;-2.742;2023-09-08T11:27:37;30.20;62.60
33863;DHT22;20158;51.436;-2.742;2023-09-08T11:30:07;30.20;62.50
33863;DHT22;20158;51.436;-2.742;2023-09-08T11:32:35;30.30;62.40
33863;DHT22;20158;51.436;-2.742;2023-09-08T11:35:09;30.30;62.20
33863;DHT22;20158;51.436;-2.742;2023-09-08T11:37:40;30.30;62.10
33863;DHT22;20158;51.436;-2.742;2023-09-08T11:40:09;30.40;61.90
33863;DHT22;20158;51.436;-2.742;2023-09-08T11:42:41;30.40;61.70
33863;DHT22;20158;51.436;-2.742;2023-09-08T11:45:14;30.40;61.60
33863;DHT22;20158;51.436;-2.742;2023-09-08T11:47:46;30.40;61.60
33863;DHT22;20158;51.436;-2.742;2023-09-08T11:50:13;30.40;61.80
33863;DHT22;20158;51.436;-2.742;2023-09-08T11:52:48;30.40;61.80
33863;DHT22;20158;51.436;-2.742;2023-09-08T11:55:15;30.30;61.90
33863;DHT22;20158;51.436;-2.742;2023-09-08T11:57:45;30.30;62.30
33863;DHT22;20158;51.436;-2.742;2023-09-08T12:00:12;30.30;62.70
33863;DHT22;20158;51.436;-2.742;2023-09-08T12:02:44;30.30;62.90
33863;DHT22;20158;51.436;-2.742;2023-09-08T12:05:24;30.30;63.00
33863;DHT22;20158;51.436;-2.742;2023-09-08T12:07:55;30.30;62.90
33863;DHT22;20158;51.436;-2.742;2023-09-08T12:10:23;30.30;62.80
33863;DHT22;20158;51.436;-2.742;2023-09-08T12:12:52;30.30;62.70
33863;DHT22;20158;51.436;-2.742;2023-09-08T12:15:31;30.30;62.70
33863;DHT22;20158;51.436;-2.742;2023-09-08T12:18:02;30.30;62.70
33863;DHT22;20158;51.436;-2.742;2023-09-08T12:20:32;30.40;62.80
33863;DHT22;20158;51.436;-2.742;2023-09-08T12:23:03;30.40;62.80
33863;DHT22;20158;51.436;-2.742;2023-09-08T12:25:29;30.40;62.60
33863;DHT22;20158;51.436;-2.742;2023-09-08T12:27:59;30.40;62.60
33863;DHT22;20158;51.436;-2.742;2023-09-08T12:30:28;30.50;62.60
33863;DHT22;20158;51.436;-2.742;2023-09-08T12:33:00;30.50;62.40
33863;DHT22;20158;51.436;-2.742;2023-09-08T12:35:27;30.60;62.30
33863;DHT22;20158;51.436;-2.742;2023-09-08T12:40:28;30.70;61.90
33863;DHT22;20158;51.436;-2.742;2023-09-08T12:42:55;30.70;61.70
33863;DHT22;20158;51.436;-2.742;2023-09-08T12:45:22;30.80;61.70
33863;DHT22;20158;51.436;-2.742;2023-09-08T12:47:49;30.80;61.80
33863;DHT22;20158;51.436;-2.742;2023-09-08T12:50:16;30.90;61.80
33863;DHT22;20158;51.436;-2.742;2023-09-08T12:52:44;31.00;61.80
33863;DHT22;20158;51.436;-2.742;2023-09-08T12:55:10;31.10;61.70
33863;DHT22;20158;51.436;-2.742;2023-09-08T12:57:37;31.20;61.50
33863;DHT22;20158;51.436;-2.742;2023-09-08T13:00:04;31.40;61.40
33863;DHT22;20158;51.436;-2.742;2023-09-08T13:02:31;31.40;61.30
33863;DHT22;20158;51.436;-2.742;2023-09-08T13:04:58;31.50;61.30
33863;DHT22;20158;51.436;-2.742;2023-09-08T13:07:25;31.60;61.20
33863;DHT22;20158;51.436;-2.742;2023-09-08T13:09:52;31.70;61.10
33863;DHT22;20158;51.436;-2.742;2023-09-08T13:12:19;31.70;60.80
33863;DHT22;20158;51.436;-2.742;2023-09-08T13:14:45;31.70;60.30
33863;DHT22;20158;51.436;-2.742;2023-09-08T13:17:12;31.70;60.10
33863;DHT22;20158;51.436;-2.742;2023-09-08T13:19:38;31.60;59.90
33863;DHT22;20158;51.436;-2.742;2023-09-08T13:22:08;31.60;59.80
33863;DHT22;20158;51.436;-2.742;2023-09-08T13:24:38;31.50;59.80
33863;DHT22;20158;51.436;-2.742;2023-09-08T13:27:05;31.40;59.70
33863;DHT22;20158;51.436;-2.742;2023-09-08T13:29:37;31.40;59.70
33863;DHT22;20158;51.436;-2.742;2023-09-08T13:32:06;31.30;59.60
33863;DHT22;20158;51.436;-2.742;2023-09-08T13:34:33;31.30;59.70
33863;DHT22;20158;51.436;-2.742;2023-09-08T13:37:01;31.30;59.70
33863;DHT22;20158;51.436;-2.742;2023-09-08T13:39:28;31.30;59.50
33863;DHT22;20158;51.436;-2.742;2023-09-08T13:41:55;31.40;59.40
33863;DHT22;20158;51.436;-2.742;2023-09-08T13:44:23;31.40;59.20
33863;DHT22;20158;51.436;-2.742;2023-09-08T13:46:51;31.40;59.80
33863;DHT22;20158;51.436;-2.742;2023-09-08T13:49:20;31.40;59.10
33863;DHT22;20158;51.436;-2.742;2023-09-08T13:51:47;31.30;59.10
33863;DHT22;20158;51.436;-2.742;2023-09-08T13:54:15;31.40;59.30
33863;DHT22;20158;51.436;-2.742;2023-09-08T13:56:41;31.40;59.20
33863;DHT22;20158;51.436;-2.742;2023-09-08T13:59:09;31.40;59.00
33863;DHT22;20158;51.436;-2.742;2023-09-08T14:01:36;31.40;59.00
33863;DHT22;20158;51.436;-2.742;2023-09-08T14:04:05;31.40;59.10
33863;DHT22;20158;51.436;-2.742;2023-09-08T14:06:33;31.40;59.10
33863;DHT22;20158;51.436;-2.742;2023-09-08T14:09:00;31.40;59.00
33863;DHT22;20158;51.436;-2.742;2023-09-08T14:11:29;31.30;59.00
33863;DHT22;20158;51.436;-2.742;2023-09-08T14:13:55;31.40;59.20
33863;DHT22;20158;51.436;-2.742;2023-09-08T14:16:22;31.40;59.30
33863;DHT22;20158;51.436;-2.742;2023-09-08T14:18:49;31.40;59.30
33863;DHT22;20158;51.436;-2.742;2023-09-08T14:21:18;31.50;59.30
33863;DHT22;20158;51.436;-2.742;2023-09-08T14:23:46;31.60;59.20
33863;DHT22;20158;51.436;-2.742;2023-09-08T14:26:12;31.70;59.00
33863;DHT22;20158;51.436;-2.742;2023-09-08T14:28:38;31.80;58.90
33863;DHT22;20158;51.436;-2.742;2023-09-08T14:31:08;31.80;58.80
33863;DHT22;20158;51.436;-2.742;2023-09-08T14:33:37;31.90;58.80
33863;DHT22;20158;51.436;-2.742;2023-09-08T14:36:04;31.90;58.70
33863;DHT22;20158;51.436;-2.742;2023-09-08T14:38:30;32.00;58.60
33863;DHT22;20158;51.436;-2.742;2023-09-08T14:41:01;31.90;58.60
33863;DHT22;20158;51.436;-2.742;2023-09-08T14:43:28;31.90;58.70
33863;DHT22;20158;51.436;-2.742;2023-09-08T14:45:55;31.70;58.80
33863;DHT22;20158;51.436;-2.742;2023-09-08T14:48:25;31.60;59.00
33863;DHT22;20158;51.436;-2.742;2023-09-08T14:50:51;31.50;59.10
33863;DHT22;20158;51.436;-2.742;2023-09-08T14:53:21;31.40;59.10
33863;DHT22;20158;51.436;-2.742;2023-09-08T14:55:48;31.40;59.10
33863;DHT22;20158;51.436;-2.742;2023-09-08T14:58:15;31.30;59.10
33863;DHT22;20158;51.436;-2.742;2023-09-08T15:00:42;31.30;59.00
33863;DHT22;20158;51.436;-2.742;2023-09-08T15:03:08;31.30;58.90
33863;DHT22;20158;51.436;-2.742;2023-09-08T15:05:35;31.30;58.70
33863;DHT22;20158;51.436;-2.742;2023-09-08T15:08:02;31.30;58.50
33863;DHT22;20158;51.436;-2.742;2023-09-08T15:10:28;31.30;58.40
33863;DHT22;20158;51.436;-2.742;2023-09-08T15:12:54;31.30;58.10
33863;DHT22;20158;51.436;-2.742;2023-09-08T15:15:21;31.40;57.80
33863;DHT22;20158;51.436;-2.742;2023-09-08T15:17:53;31.40;57.50
33863;DHT22;20158;51.436;-2.742;2023-09-08T15:20:23;31.40;57.30
33863;DHT22;20158;51.436;-2.742;2023-09-08T15:22:49;31.40;57.30
33863;DHT22;20158;51.436;-2.742;2023-09-08T15:25:15;31.30;57.50